Wetterdaten: Mittwoch, 13.05.2015
Datum Zeit Temp. A. Feuchte A. Luftdruck Regen Wind Richtung Richtung Sonnenschein ET UV Solar Taupunkt Windchill Windben Empfang
13.05.2015 00:00 14,8 C 83 % 1015,9 hPa 0,0 l/m 0,0 km/h (0 Bft) S 183 0 min 0,000 mm 0,0 UV-I 0 W/m 11,9 C 14,8 C 0,0 km/h (0 Bft) 0,00 %
13.05.2015 00:15 14,7 C 82 % 1015,8 hPa 0,0 l/m 0,0 km/h (0 Bft) S 189 0 min 0,000 mm 0,0 UV-I 0 W/m 11,7 C 14,7 C 0,0 km/h (0 Bft) 0,00 %
13.05.2015 00:30 14,6 C 82 % 1015,9 hPa 0,0 l/m 0,0 km/h (0 Bft) S 185 0 min 0,000 mm 0,0 UV-I 0 W/m 11,6 C 14,6 C 0,0 km/h (0 Bft) 0,00 %
13.05.2015 00:45 14,5 C 82 % 1015,8 hPa 0,0 l/m 0,0 km/h (0 Bft) S-SW 197 0 min 0,000 mm 0,0 UV-I 0 W/m 11,5 C 14,5 C 0,0 km/h (0 Bft) 0,00 %
13.05.2015 01:00 14,5 C 82 % 1015,8 hPa 0,0 l/m 0,0 km/h (0 Bft) S 183 0 min 0,000 mm 0,0 UV-I 0 W/m 11,5 C 14,5 C 0,0 km/h (0 Bft) 0,00 %
13.05.2015 01:15 15,1 C 75 % 1015,6 hPa 0,0 l/m 0,0 km/h (0 Bft) S 184 0 min 0,000 mm 0,0 UV-I 0 W/m 10,7 C 15,1 C 0,0 km/h (0 Bft) 0,00 %
13.05.2015 01:30 15,9 C 71 % 1015,5 hPa 0,0 l/m 0,0 km/h (0 Bft) S-SW 197 0 min 0,000 mm 0,0 UV-I 0 W/m 10,6 C 15,9 C 0,0 km/h (0 Bft) 0,00 %
13.05.2015 01:45 16,1 C 69 % 1015,3 hPa 0,0 l/m 0,0 km/h (0 Bft) S 181 0 min 0,000 mm 0,0 UV-I 0 W/m 10,4 C 16,1 C 0,0 km/h (0 Bft) 0,00 %
13.05.2015 02:00 16,2 C 69 % 1015,4 hPa 0,0 l/m 0,0 km/h (0 Bft) S-SO 167 0 min 0,000 mm 0,0 UV-I 0 W/m 10,5 C 16,2 C 0,0 km/h (0 Bft) 0,00 %
13.05.2015 02:15 16,2 C 67 % 1015,4 hPa 0,0 l/m 1,4 km/h (1 Bft) W-SW 256 0 min 0,000 mm 0,0 UV-I 0 W/m 10,1 C 16,2 C 4,0 km/h (1 Bft) 0,00 %
13.05.2015 02:30 16,7 C 63 % 1015,4 hPa 0,0 l/m 2,2 km/h (1 Bft) W-SW 241 0 min 0,000 mm 0,0 UV-I 0 W/m 9,6 C 16,7 C 4,0 km/h (1 Bft) 0,00 %
13.05.2015 02:45 17,2 C 60 % 1015,5 hPa 0,0 l/m 0,0 km/h (0 Bft) O 88 0 min 0,000 mm 0,0 UV-I 0 W/m 9,4 C 17,2 C 0,0 km/h (0 Bft) 0,00 %
13.05.2015 03:00 17,1 C 61 % 1016,1 hPa 0,0 l/m 2,9 km/h (1 Bft) SW 221 0 min 0,000 mm 0,0 UV-I 0 W/m 9,5 C 17,1 C 4,0 km/h (1 Bft) 0,00 %
13.05.2015 03:15 17,4 C 59 % 1016,0 hPa 0,0 l/m 1,4 km/h (1 Bft) W-SW 251 0 min 0,000 mm 0,0 UV-I 0 W/m 9,3 C 17,4 C 4,0 km/h (1 Bft) 0,00 %
13.05.2015 03:30 17,8 C 57 % 1016,3 hPa 0,0 l/m 1,4 km/h (1 Bft) SW 215 0 min 0,000 mm 0,0 UV-I 0 W/m 9,2 C 17,8 C 4,0 km/h (1 Bft) 0,00 %
13.05.2015 03:45 18,2 C 58 % 1016,4 hPa 0,0 l/m 3,2 km/h (1 Bft) W-SW 245 0 min 0,000 mm 0,0 UV-I 0 W/m 9,8 C 18,2 C 7,9 km/h (2 Bft) 0,00 %
13.05.2015 04:00 18,2 C 61 % 1016,8 hPa 0,0 l/m 4,0 km/h (1 Bft) N-NW 346 0 min 0,000 mm 0,0 UV-I 0 W/m 10,6 C 18,2 C 7,9 km/h (2 Bft) 0,00 %
13.05.2015 04:15 18,2 C 63 % 1016,8 hPa 0,0 l/m 3,2 km/h (1 Bft) NW 308 0 min 0,000 mm 0,0 UV-I 0 W/m 11,0 C 18,2 C 7,9 km/h (2 Bft) 0,00 %
13.05.2015 04:30 17,8 C 65 % 1017,1 hPa 0,0 l/m 7,2 km/h (2 Bft) NW 309 0 min 0,000 mm 0,0 UV-I 0 W/m 11,1 C 17,4 C 11,9 km/h (2 Bft) 0,00 %
13.05.2015 04:45 17,7 C 65 % 1017,5 hPa 0,0 l/m 1,4 km/h (1 Bft) S 185 0 min 0,000 mm 0,0 UV-I 0 W/m 11,0 C 17,7 C 4,0 km/h (1 Bft) 0,00 %
13.05.2015 05:00 17,9 C 66 % 1017,5 hPa 0,0 l/m 5,4 km/h (1 Bft) SW 220 0 min 0,000 mm 0,0 UV-I 0 W/m 11,5 C 17,9 C 7,9 km/h (2 Bft) 0,00 %
13.05.2015 05:15 17,9 C 67 % 1017,8 hPa 0,0 l/m 4,3 km/h (1 Bft) W-SW 256 0 min 0,000 mm 0,0 UV-I 0 W/m 11,7 C 17,9 C 7,9 km/h (2 Bft) 0,00 %
13.05.2015 05:30 17,8 C 68 % 1018,1 hPa 0,0 l/m 0,0 km/h (0 Bft) S 175 0 min 0,000 mm 0,0 UV-I 0 W/m 11,8 C 17,8 C 0,0 km/h (0 Bft) 0,00 %
13.05.2015 05:45 17,6 C 70 % 1017,9 hPa 0,0 l/m 1,4 km/h (1 Bft) W 272 0 min 0,000 mm 0,0 UV-I 2 W/m 12,1 C 17,6 C 4,0 km/h (1 Bft) 0,00 %
13.05.2015 06:00 17,5 C 71 % 1018,2 hPa 0,0 l/m 0,0 km/h (0 Bft) SW 220 0 min 0,000 mm 0,0 UV-I 17 W/m 12,2 C 17,5 C 0,0 km/h (0 Bft) 0,00 %
13.05.2015 06:15 17,5 C 72 % 1018,2 hPa 0,0 l/m 1,8 km/h (1 Bft) W 276 0 min 0,000 mm 0,0 UV-I 25 W/m 12,4 C 17,5 C 4,0 km/h (1 Bft) 0,00 %
13.05.2015 06:30 17,6 C 73 % 1018,2 hPa 0,0 l/m 0,0 km/h (0 Bft) S 186 0 min 0,000 mm 0,0 UV-I 31 W/m 12,7 C 17,6 C 0,0 km/h (0 Bft) 0,00 %
13.05.2015 06:45 17,5 C 74 % 1018,2 hPa 0,0 l/m 0,0 km/h (0 Bft) SW 222 0 min 0,000 mm 0,0 UV-I 59 W/m 12,8 C 17,5 C 0,0 km/h (0 Bft) 0,00 %
13.05.2015 07:00 17,3 C 73 % 1018,1 hPa 0,0 l/m 4,7 km/h (1 Bft) SW 221 0 min 0,000 mm 0,0 UV-I 26 W/m 12,4 C 17,3 C 7,9 km/h (2 Bft) 0,00 %
13.05.2015 07:15 17,4 C 73 % 1018,2 hPa 0,0 l/m 4,7 km/h (1 Bft) W-SW 252 0 min 0,000 mm 1,0 UV-I 60 W/m 12,5 C 17,4 C 7,9 km/h (2 Bft) 0,00 %
13.05.2015 07:30 17,6 C 73 % 1018,4 hPa 0,0 l/m 4,3 km/h (1 Bft) W-SW 255 0 min 0,000 mm 0,0 UV-I 79 W/m 12,7 C 17,6 C 7,9 km/h (2 Bft) 0,00 %
13.05.2015 07:45 17,6 C 74 % 1018,4 hPa 0,0 l/m 4,0 km/h (1 Bft) W-SW 256 0 min 0,000 mm 1,0 UV-I 68 W/m 12,9 C 17,6 C 7,9 km/h (2 Bft) 0,00 %
13.05.2015 08:00 17,8 C 74 % 1018,4 hPa 0,0 l/m 0,0 km/h (0 Bft) S-SW 192 0 min 0,000 mm 1,0 UV-I 76 W/m 13,1 C 17,8 C 0,0 km/h (0 Bft) 0,00 %
13.05.2015 08:15 17,7 C 75 % 1018,5 hPa 0,0 l/m 0,0 km/h (0 Bft) S 191 0 min 0,000 mm 1,0 UV-I 87 W/m 13,2 C 17,7 C 0,0 km/h (0 Bft) 0,00 %
13.05.2015 08:30 17,8 C 76 % 1018,7 hPa 0,0 l/m 0,0 km/h (0 Bft) S 176 0 min 0,000 mm 1,0 UV-I 93 W/m 13,5 C 17,8 C 0,0 km/h (0 Bft) 0,00 %
13.05.2015 08:45 18,9 C 72 % 1018,6 hPa 0,0 l/m 0,4 km/h (0 Bft) SW 216 0 min 0,000 mm 2,0 UV-I 271 W/m 13,7 C 18,9 C 4,0 km/h (1 Bft) 0,00 %
13.05.2015 09:00 19,0 C 71 % 1018,6 hPa 0,0 l/m 0,0 km/h (0 Bft) SO 132 0 min 0,000 mm 1,0 UV-I 258 W/m 13,6 C 19,0 C 0,0 km/h (0 Bft) 0,00 %
13.05.2015 09:15 19,1 C 69 % 1018,8 hPa 0,0 l/m 2,2 km/h (1 Bft) W-SW 256 0 min 0,000 mm 1,0 UV-I 259 W/m 13,3 C 19,1 C 4,0 km/h (1 Bft) 0,00 %
13.05.2015 09:30 18,5 C 65 % 1018,9 hPa 0,0 l/m 0,0 km/h (0 Bft) SO 132 0 min 0,000 mm 1,0 UV-I 234 W/m 11,8 C 18,5 C 0,0 km/h (0 Bft) 0,00 %
13.05.2015 09:45 17,7 C 66 % 1019,1 hPa 0,0 l/m 2,9 km/h (1 Bft) SW 223 0 min 0,000 mm 2,0 UV-I 190 W/m 11,3 C 17,7 C 4,0 km/h (1 Bft) 0,00 %
13.05.2015 10:00 17,3 C 69 % 1019,2 hPa 0,0 l/m 0,0 km/h (0 Bft) S-SW 212 0 min 0,000 mm 1,0 UV-I 98 W/m 11,6 C 17,3 C 0,0 km/h (0 Bft) 0,00 %
13.05.2015 10:15 17,4 C 69 % 1019,3 hPa 0,0 l/m 0,4 km/h (0 Bft) SW 225 0 min 0,000 mm 1,0 UV-I 179 W/m 11,7 C 17,4 C 4,0 km/h (1 Bft) 0,00 %
13.05.2015 10:30 16,9 C 68 % 1019,1 hPa 0,0 l/m 0,0 km/h (0 Bft) S 178 0 min 0,000 mm 1,0 UV-I 120 W/m 11,0 C 16,9 C 0,0 km/h (0 Bft) 0,00 %
13.05.2015 10:45 17,4 C 66 % 1019,1 hPa 0,0 l/m 0,0 km/h (0 Bft) S-SW 195 0 min 0,000 mm 2,0 UV-I 200 W/m 11,0 C 17,4 C 0,0 km/h (0 Bft) 0,00 %
13.05.2015 11:00 18,3 C 64 % 1019,0 hPa 0,0 l/m 0,0 km/h (0 Bft) SO 137 0 min 0,000 mm 2,0 UV-I 227 W/m 11,4 C 18,3 C 0,0 km/h (0 Bft) 0,00 %
13.05.2015 11:15 19,5 C 61 % 1018,4 hPa 0,0 l/m 2,9 km/h (1 Bft) SW 220 0 min 0,000 mm 3,0 UV-I 361 W/m 11,8 C 19,5 C 4,0 km/h (1 Bft) 0,00 %
13.05.2015 11:30 20,1 C 55 % 1018,2 hPa 0,0 l/m 0,0 km/h (0 Bft) SW 234 0 min 0,000 mm 3,0 UV-I 446 W/m 10,8 C 20,1 C 0,0 km/h (0 Bft) 0,00 %
13.05.2015 11:45 20,5 C 53 % 1018,0 hPa 0,0 l/m 0,4 km/h (0 Bft) S 177 15 min 0,000 mm 4,0 UV-I 604 W/m 10,6 C 20,5 C 4,0 km/h (1 Bft) 0,00 %
13.05.2015 12:00 21,0 C 49 % 1017,7 hPa 0,0 l/m 0,0 km/h (0 Bft) S 182 15 min 0,000 mm 3,0 UV-I 765 W/m 9,9 C 21,0 C 0,0 km/h (0 Bft) 0,00 %
13.05.2015 12:15 20,7 C 51 % 1017,6 hPa 0,0 l/m 0,0 km/h (0 Bft) SO 141 0 min 0,000 mm 3,0 UV-I 416 W/m 10,2 C 20,7 C 0,0 km/h (0 Bft) 0,00 %
13.05.2015 12:30 20,8 C 50 % 1017,4 hPa 0,0 l/m 0,0 km/h (0 Bft) S-SW 200 0 min 0,000 mm 3,0 UV-I 379 W/m 10,0 C 20,8 C 0,0 km/h (0 Bft) 0,00 %
13.05.2015 12:45 20,6 C 51 % 1017,0 hPa 0,0 l/m 1,4 km/h (1 Bft) N 9 0 min 0,000 mm 4,0 UV-I 463 W/m 10,1 C 20,6 C 4,0 km/h (1 Bft) 0,00 %
13.05.2015 13:00 22,7 C 45 % 1016,5 hPa 0,0 l/m 0,0 km/h (0 Bft) S-SW 210 15 min 0,000 mm 6,0 UV-I 811 W/m 10,1 C 22,7 C 0,0 km/h (0 Bft) 0,00 %
13.05.2015 13:15 23,0 C 47 % 1016,1 hPa 0,0 l/m 4,0 km/h (1 Bft) W 273 15 min 0,000 mm 6,0 UV-I 998 W/m 11,1 C 23,0 C 7,9 km/h (2 Bft) 0,00 %
13.05.2015 13:30 23,2 C 47 % 1015,9 hPa 0,0 l/m 0,7 km/h (0 Bft) N-NO 29 15 min 0,000 mm 5,0 UV-I 881 W/m 11,3 C 23,2 C 4,0 km/h (1 Bft) 0,00 %
13.05.2015 13:45 21,9 C 52 % 1015,8 hPa 0,0 l/m 0,7 km/h (0 Bft) W 266 15 min 0,000 mm 5,0 UV-I 834 W/m 11,6 C 21,9 C 4,0 km/h (1 Bft) 0,00 %
13.05.2015 14:00 22,1 C 46 % 1015,4 hPa 0,0 l/m 0,0 km/h (0 Bft) S-SW 200 15 min 0,000 mm 4,0 UV-I 734 W/m 9,9 C 22,1 C 0,0 km/h (0 Bft) 0,00 %
13.05.2015 14:15 22,3 C 49 % 1014,9 hPa 0,0 l/m 1,8 km/h (1 Bft) N-NW 344 15 min 0,000 mm 5,0 UV-I 920 W/m 11,1 C 22,3 C 4,0 km/h (1 Bft) 0,00 %
13.05.2015 14:30 22,5 C 51 % 1014,7 hPa 0,0 l/m 3,2 km/h (1 Bft) W 271 15 min 0,000 mm 4,0 UV-I 865 W/m 11,8 C 22,5 C 4,0 km/h (1 Bft) 0,00 %
13.05.2015 14:45 23,3 C 50 % 1014,4 hPa 0,0 l/m 0,0 km/h (0 Bft) W-SW 237 15 min 0,000 mm 5,0 UV-I 561 W/m 12,3 C 23,3 C 0,0 km/h (0 Bft) 0,00 %
13.05.2015 15:00 22,9 C 51 % 1014,1 hPa 0,0 l/m 4,0 km/h (1 Bft) N-NO 25 15 min 0,000 mm 4,0 UV-I 850 W/m 12,2 C 22,9 C 7,9 km/h (2 Bft) 0,00 %
13.05.2015 15:15 22,3 C 53 % 1013,8 hPa 0,0 l/m 1,4 km/h (1 Bft) N-NW 348 15 min 0,000 mm 4,0 UV-I 819 W/m 12,2 C 22,3 C 4,0 km/h (1 Bft) 0,00 %
13.05.2015 15:30 22,2 C 51 % 1013,7 hPa 0,0 l/m 1,4 km/h (1 Bft) NO 56 15 min 0,000 mm 2,0 UV-I 808 W/m 11,6 C 22,2 C 4,0 km/h (1 Bft) 0,00 %
13.05.2015 15:45 23,2 C 51 % 1013,4 hPa 0,0 l/m 0,0 km/h (0 Bft) NO 42 15 min 0,000 mm 2,0 UV-I 778 W/m 12,5 C 23,2 C 0,0 km/h (0 Bft) 0,00 %
13.05.2015 16:00 24,6 C 44 % 1012,8 hPa 0,0 l/m 0,0 km/h (0 Bft) W-NW 303 15 min 0,000 mm 2,0 UV-I 782 W/m 11,5 C 24,6 C 0,0 km/h (0 Bft) 0,00 %
13.05.2015 16:15 24,4 C 44 % 1012,1 hPa 0,0 l/m 1,8 km/h (1 Bft) W 269 15 min 0,000 mm 2,0 UV-I 655 W/m 11,3 C 24,4 C 4,0 km/h (1 Bft) 0,00 %
13.05.2015 16:30 25,1 C 41 % 1011,5 hPa 0,0 l/m 1,4 km/h (1 Bft) N 352 15 min 0,000 mm 2,0 UV-I 735 W/m 10,9 C 25,1 C 4,0 km/h (1 Bft) 0,00 %
13.05.2015 16:45 25,2 C 44 % 1011,4 hPa 0,0 l/m 0,7 km/h (0 Bft) W-SW 244 15 min 0,000 mm 1,0 UV-I 767 W/m 12,1 C 25,2 C 4,0 km/h (1 Bft) 0,00 %
13.05.2015 17:00 23,0 C 51 % 1011,6 hPa 0,0 l/m 0,0 km/h (0 Bft) S-SW 199 0 min 0,000 mm 1,0 UV-I 180 W/m 12,3 C 23,0 C 0,0 km/h (0 Bft) 0,00 %
13.05.2015 17:15 22,7 C 52 % 1011,9 hPa 0,0 l/m 0,0 km/h (0 Bft) SW 224 0 min 0,000 mm 0,0 UV-I 180 W/m 12,3 C 22,7 C 0,0 km/h (0 Bft) 0,00 %
13.05.2015 17:30 22,0 C 57 % 1011,5 hPa 0,0 l/m 0,0 km/h (0 Bft) S-SW 195 0 min 0,000 mm 1,0 UV-I 25 W/m 13,1 C 22,0 C 0,0 km/h (0 Bft) 0,00 %
13.05.2015 17:45 22,7 C 52 % 1011,1 hPa 0,0 l/m 0,7 km/h (0 Bft) W-SW 256 15 min 0,000 mm 1,0 UV-I 313 W/m 12,3 C 22,7 C 4,0 km/h (1 Bft) 0,00 %
13.05.2015 18:00 23,7 C 48 % 1011,1 hPa 0,0 l/m 7,2 km/h (2 Bft) W-NW 287 15 min 0,000 mm 1,0 UV-I 619 W/m 12,0 C 23,5 C 11,9 km/h (2 Bft) 0,00 %
13.05.2015 18:15 24,2 C 47 % 1010,3 hPa 0,0 l/m 0,7 km/h (0 Bft) W 278 15 min 0,000 mm 1,0 UV-I 604 W/m 12,2 C 24,2 C 4,0 km/h (1 Bft) 0,00 %
13.05.2015 18:30 23,4 C 47 % 1010,2 hPa 0,0 l/m 0,0 km/h (0 Bft) S-SW 194 15 min 0,000 mm 1,0 UV-I 499 W/m 11,4 C 23,4 C 0,0 km/h (0 Bft) 0,00 %
13.05.2015 18:45 23,6 C 49 % 1010,1 hPa 0,0 l/m 0,0 km/h (0 Bft) S-SW 193 15 min 0,000 mm 1,0 UV-I 465 W/m 12,2 C 23,6 C 0,0 km/h (0 Bft) 0,00 %
13.05.2015 19:00 23,0 C 52 % 1009,5 hPa 0,0 l/m 0,0 km/h (0 Bft) O-SO 112 15 min 0,000 mm 1,0 UV-I 324 W/m 12,6 C 23,0 C 0,0 km/h (0 Bft) 0,00 %
13.05.2015 19:15 21,6 C 57 % 1010,1 hPa 0,0 l/m 0,0 km/h (0 Bft) SW 235 15 min 0,000 mm 1,0 UV-I 250 W/m 12,7 C 21,6 C 0,0 km/h (0 Bft) 0,00 %
13.05.2015 19:30 21,3 C 58 % 1010,1 hPa 0,0 l/m 0,0 km/h (0 Bft) SW 217 15 min 0,000 mm 0,0 UV-I 161 W/m 12,7 C 21,3 C 0,0 km/h (0 Bft) 0,00 %
13.05.2015 19:45 20,9 C 60 % 1009,8 hPa 0,0 l/m 0,0 km/h (0 Bft) O-SO 107 15 min 0,000 mm 0,0 UV-I 104 W/m 12,8 C 20,9 C 0,0 km/h (0 Bft) 0,00 %
13.05.2015 20:00 20,0 C 62 % 1010,1 hPa 0,0 l/m 0,0 km/h (0 Bft) S 173 15 min 0,000 mm 0,0 UV-I 50 W/m 12,5 C 20,0 C 0,0 km/h (0 Bft) 0,00 %
13.05.2015 20:15 19,0 C 67 % 1010,0 hPa 0,0 l/m 0,0 km/h (0 Bft) SO 146 0 min 0,000 mm 0,0 UV-I 17 W/m 12,7 C 19,0 C 0,0 km/h (0 Bft) 0,00 %
13.05.2015 20:30 18,4 C 68 % 1009,9 hPa 0,0 l/m 0,0 km/h (0 Bft) S 175 0 min 0,000 mm 0,0 UV-I 1 W/m 12,4 C 18,4 C 0,0 km/h (0 Bft) 0,00 %
13.05.2015 20:45 17,8 C 69 % 1009,7 hPa 0,0 l/m 0,0 km/h (0 Bft) S 178 0 min 0,000 mm 0,0 UV-I 0 W/m 12,0 C 17,8 C 0,0 km/h (0 Bft) 0,00 %
13.05.2015 21:00 17,1 C 72 % 1009,6 hPa 0,0 l/m 0,0 km/h (0 Bft) S 169 0 min 0,000 mm 0,0 UV-I 0 W/m 12,0 C 17,1 C 0,0 km/h (0 Bft) 0,00 %
13.05.2015 21:15 16,7 C 75 % 1009,1 hPa 0,0 l/m 0,0 km/h (0 Bft) S 173 0 min 0,000 mm 0,0 UV-I 0 W/m 12,2 C 16,7 C 0,0 km/h (0 Bft) 0,00 %
13.05.2015 21:30 16,6 C 74 % 1009,0 hPa 0,0 l/m 0,0 km/h (0 Bft) S 171 0 min 0,000 mm 0,0 UV-I 0 W/m 11,9 C 16,6 C 0,0 km/h (0 Bft) 0,00 %
13.05.2015 21:45 16,3 C 78 % 1008,9 hPa 0,0 l/m 0,0 km/h (0 Bft) S 173 0 min 0,000 mm 0,0 UV-I 0 W/m 12,5 C 16,3 C 0,0 km/h (0 Bft) 0,00 %
13.05.2015 22:00 15,8 C 77 % 1008,6 hPa 0,0 l/m 1,4 km/h (1 Bft) S 172 0 min 0,000 mm 0,0 UV-I 0 W/m 11,8 C 15,8 C 4,0 km/h (1 Bft) 0,00 %
13.05.2015 22:15 16,0 C 78 % 1008,7 hPa 0,0 l/m 0,0 km/h (0 Bft) S 173 0 min 0,000 mm 0,0 UV-I 0 W/m 12,2 C 16,0 C 0,0 km/h (0 Bft) 0,00 %
13.05.2015 22:30 15,6 C 81 % 1008,6 hPa 0,0 l/m 0,0 km/h (0 Bft) S 173 0 min 0,000 mm 0,0 UV-I 0 W/m 12,3 C 15,6 C 0,0 km/h (0 Bft) 0,00 %
13.05.2015 22:45 15,1 C 82 % 1007,9 hPa 0,0 l/m 0,0 km/h (0 Bft) S 173 0 min 0,000 mm 0,0 UV-I 0 W/m 12,0 C 15,1 C 0,0 km/h (0 Bft) 0,00 %
13.05.2015 23:00 14,8 C 82 % 1007,9 hPa 0,0 l/m 0,0 km/h (0 Bft) SO 141 0 min 0,000 mm 0,0 UV-I 0 W/m 11,8 C 14,8 C 0,0 km/h (0 Bft) 0,00 %
13.05.2015 23:15 14,8 C 82 % 1008,0 hPa 0,0 l/m 0,0 km/h (0 Bft) SO 141 0 min 0,000 mm 0,0 UV-I 0 W/m 11,8 C 14,8 C 0,0 km/h (0 Bft) 0,00 %
13.05.2015 23:30 14,8 C 83 % 1007,5 hPa 0,0 l/m 0,0 km/h (0 Bft) S 177 0 min 0,000 mm 0,0 UV-I 0 W/m 11,9 C 14,8 C 0,0 km/h (0 Bft) 0,00 %
13.05.2015 23:45 14,7 C 86 % 1006,8 hPa 0,0 l/m 0,0 km/h (0 Bft) SO 143 0 min 0,000 mm 0,0 UV-I 0 W/m 12,4 C 14,7 C 0,0 km/h (0 Bft) 0,00 %
_ Min-Zeit 00:45 16:30 23:45 - 00:00 - - - - - - 03:30 00:45 00:00 00:00
Minimum _ 14,5 C 41 % 1006,8 hPa - 0,0 km/h (0 Bft) - - - - - - 9,2 C 14,5 C 0,0 km/h (0 Bft) 0,00 %
_ Max-Zeit 16:45 23:45 10:15 00:00 04:30 - - 11:45 00:00 13:00 13:15 08:45 16:45 04:30 00:00
Maximum _ 25,2 C 86 % 1019,3 hPa 0,0 l/m 7,2 km/h
NW (2 Bft)
- - 15 min 0,000 mm 6,0 UV-I 998 W/m 13,7 C 25,2 C 11,9 km/h
NW (2 Bft)
0,00 %
Durchschnitt _ 19,0 C 63 % 1014,6 hPa #0,0 l/m 1,1 km/h (0 Bft) W-SW - #7:00 h #0,000 mm 2,3 UV-I 378 W/m 11,7 C 19,0 C 2,3 km/h (1 Bft) 0,00 %